createdAt,value
2023-01-23T00:01:16.543Z,20.42
2023-01-23T00:06:15.486Z,28.55
2023-01-23T00:16:15.557Z,27.48
2023-01-23T00:21:19.089Z,27.38
2023-01-23T00:26:18.581Z,24.80
2023-01-23T00:31:16.927Z,26.55
2023-01-23T00:36:15.457Z,24.55
2023-01-23T00:41:12.538Z,23.90
2023-01-23T00:46:08.954Z,23.42
2023-01-23T00:51:06.359Z,25.30
2023-01-23T00:56:02.799Z,24.27
2023-01-23T01:00:59.209Z,23.85
2023-01-23T01:05:56.031Z,24.98
2023-01-23T01:10:52.422Z,26.98
2023-01-23T01:15:49.744Z,25.42
2023-01-23T01:20:47.079Z,24.67
2023-01-23T01:25:43.518Z,25.45
2023-01-23T01:30:41.195Z,22.50
2023-01-23T01:35:40.845Z,24.50
2023-01-23T01:40:38.266Z,23.35
2023-01-23T01:50:58.177Z,26.15
2023-01-23T01:55:55.534Z,18.65
2023-01-23T02:00:52.016Z,24.40
2023-01-23T02:05:50.196Z,31.67
2023-01-23T02:10:47.270Z,28.90
2023-01-23T02:15:43.666Z,28.20
2023-01-23T02:20:40.487Z,25.67
2023-01-23T02:25:42.964Z,25.50
2023-01-23T02:30:42.370Z,21.73
2023-01-23T02:35:39.385Z,23.10
2023-01-23T02:40:41.190Z,20.65
2023-01-23T02:45:38.918Z,24.55
2023-01-23T02:50:35.325Z,25.70
2023-01-23T02:55:33.777Z,19.83
2023-01-23T03:00:30.179Z,20.58
2023-01-23T03:05:26.868Z,23.10
2023-01-23T03:10:23.335Z,23.48
2023-01-23T03:15:19.682Z,18.05
2023-01-23T03:20:20.067Z,23.75
2023-01-23T03:25:17.253Z,19.42
2023-01-23T03:30:21.026Z,21.50
2023-01-23T03:35:19.819Z,21.23
2023-01-23T03:40:40.099Z,25.98
2023-01-23T03:45:36.518Z,21.58
2023-01-23T03:50:32.879Z,19.83
2023-01-23T03:55:29.268Z,19.63
2023-01-23T04:00:25.674Z,21.35
2023-01-23T04:05:22.037Z,22.02
2023-01-23T04:10:18.810Z,23.52
2023-01-23T04:15:15.463Z,18.42
2023-01-23T04:20:12.991Z,22.85
2023-01-23T04:25:10.129Z,21.30
2023-01-23T04:30:07.094Z,25.15
2023-01-23T04:35:03.848Z,25.83
2023-01-23T04:40:00.567Z,21.75
2023-01-23T04:44:56.920Z,22.08
2023-01-23T04:49:53.304Z,28.30
2023-01-23T04:54:49.723Z,27.58
2023-01-23T04:59:46.092Z,21.40
2023-01-23T05:04:42.472Z,19.08
2023-01-23T05:09:40.179Z,24.88
2023-01-23T05:14:36.618Z,25.25
2023-01-23T05:19:33.058Z,22.77
2023-01-23T05:24:29.496Z,21.42
2023-01-23T05:29:26.138Z,18.75
2023-01-23T05:34:22.556Z,20.67
2023-01-23T05:39:19.100Z,16.90
2023-01-23T05:44:15.542Z,23.45
2023-01-23T05:49:11.936Z,20.75
2023-01-23T05:54:10.184Z,21.70
2023-01-23T05:59:06.571Z,16.83
2023-01-23T06:04:02.929Z,19.55
2023-01-23T06:09:00.081Z,22.20
2023-01-23T06:13:56.432Z,22.92
2023-01-23T06:18:53.019Z,21.27
2023-01-23T06:23:49.365Z,23.08
2023-01-23T06:28:45.765Z,23.55
2023-01-23T06:33:42.337Z,21.92
2023-01-23T06:38:38.924Z,23.42
2023-01-23T06:43:35.274Z,22.80
2023-01-23T06:48:31.639Z,20.13
2023-01-23T06:53:28.084Z,21.73
2023-01-23T06:58:24.546Z,24.13
2023-01-23T07:03:21.053Z,19.15
2023-01-23T07:08:17.642Z,16.42
2023-01-23T07:13:13.985Z,22.25
2023-01-23T07:18:10.428Z,20.27
2023-01-23T07:23:06.809Z,22.08
2023-01-23T07:28:03.377Z,20.10
2023-01-23T07:33:00.040Z,20.13
2023-01-23T07:37:57.119Z,22.60
2023-01-23T07:42:53.457Z,21.98
2023-01-23T07:47:49.899Z,23.23
2023-01-23T07:52:46.238Z,24.45
2023-01-23T07:57:42.691Z,20.23
2023-01-23T08:02:39.422Z,19.80
2023-01-23T08:07:35.751Z,26.70
2023-01-23T08:12:32.073Z,20.20
2023-01-23T08:17:28.400Z,23.35
2023-01-23T08:22:24.854Z,22.25
2023-01-23T08:27:21.605Z,22.80
2023-01-23T08:32:18.033Z,16.75
2023-01-23T08:37:14.358Z,18.38
2023-01-23T08:42:10.736Z,17.75
2023-01-23T08:47:07.189Z,19.45
2023-01-23T08:52:05.830Z,17.45
2023-01-23T08:57:02.846Z,17.67
2023-01-23T09:01:59.213Z,15.63
2023-01-23T09:06:56.047Z,15.43
2023-01-23T09:11:53.817Z,14.68
2023-01-23T09:16:50.371Z,13.93
2023-01-23T09:21:46.832Z,16.38
2023-01-23T09:26:43.590Z,17.83
2023-01-23T09:31:39.999Z,18.15
2023-01-23T09:36:42.756Z,13.13
2023-01-23T09:41:40.860Z,15.70
2023-01-23T09:46:52.617Z,16.23
2023-01-23T09:52:02.086Z,13.43
2023-01-23T09:57:04.376Z,21.90
2023-01-23T10:02:00.880Z,20.02
2023-01-23T10:07:06.717Z,18.27
2023-01-23T10:12:22.287Z,19.42
2023-01-23T10:17:29.335Z,18.95
2023-01-23T10:22:41.611Z,17.52
2023-01-23T10:27:43.456Z,22.73
2023-01-23T10:32:49.683Z,15.55
2023-01-23T10:38:01.789Z,17.55
2023-01-23T10:43:02.515Z,16.95
2023-01-23T10:47:59.953Z,18.83
2023-01-23T10:53:07.206Z,19.40
2023-01-23T10:58:03.721Z,18.92
2023-01-23T11:03:26.411Z,15.50
2023-01-23T11:08:34.020Z,18.60
2023-01-23T11:13:30.844Z,16.27
2023-01-23T11:18:39.647Z,18.73
2023-01-23T11:28:35.361Z,11.50
2023-01-23T11:33:53.638Z,16.08
2023-01-23T11:38:57.638Z,17.23
2023-01-23T11:43:54.186Z,15.27
2023-01-23T11:49:05.998Z,18.48
2023-01-23T11:54:26.178Z,15.52
2023-01-23T11:59:44.894Z,15.52
2023-01-23T12:10:25.191Z,12.82
2023-01-23T12:15:30.578Z,16.23
2023-01-23T12:20:39.183Z,15.98
2023-01-23T12:25:36.972Z,16.88
2023-01-23T12:30:41.625Z,15.65
2023-01-23T12:36:06.042Z,16.92
2023-01-23T12:41:36.698Z,15.23
2023-01-23T12:46:56.090Z,16.35
2023-01-23T12:52:02.149Z,16.27
2023-01-23T12:57:00.504Z,19.48
2023-01-23T13:02:09.316Z,21.30
2023-01-23T13:07:32.349Z,19.67
2023-01-23T13:12:29.878Z,19.17
2023-01-23T13:17:44.114Z,18.77
2023-01-23T13:22:40.529Z,20.75
2023-01-23T13:27:47.331Z,16.63
2023-01-23T13:32:43.963Z,20.98
2023-01-23T13:37:40.340Z,18.88
2023-01-23T13:42:36.878Z,17.67
2023-01-23T14:25:21.782Z,19.10
2023-01-23T14:30:23.843Z,19.52
2023-01-23T14:35:27.817Z,19.45
2023-01-23T14:40:28.349Z,23.48
2023-01-23T14:45:32.127Z,18.77
2023-01-23T14:50:30.455Z,21.13
2023-01-23T14:55:32.702Z,25.25
2023-01-23T15:00:30.319Z,26.65
2023-01-23T15:05:28.380Z,26.88
2023-01-23T15:10:27.945Z,31.37
2023-01-23T15:15:26.442Z,28.48
2023-01-23T15:20:32.128Z,32.22
2023-01-23T15:25:33.621Z,29.25
2023-01-23T15:30:29.949Z,25.30
2023-01-23T15:35:26.505Z,23.38
2023-01-23T15:40:27.862Z,27.33
2023-01-23T15:45:24.243Z,21.10
2023-01-23T15:50:20.783Z,26.02
2023-01-23T15:55:18.799Z,25.65
2023-01-23T16:00:26.511Z,23.20
2023-01-23T16:05:25.509Z,22.95
2023-01-23T16:10:23.587Z,27.88
2023-01-23T16:15:22.933Z,23.83
2023-01-23T16:20:22.329Z,28.23
2023-01-23T16:25:41.941Z,27.00
2023-01-23T16:30:39.676Z,30.13
2023-01-23T16:35:36.703Z,24.42
2023-01-23T16:40:33.750Z,23.50
2023-01-23T16:45:31.960Z,24.70
2023-01-23T16:50:36.810Z,26.15
2023-01-23T16:55:39.708Z,26.20
2023-01-23T17:00:36.334Z,28.77
2023-01-23T17:05:32.807Z,26.25
2023-01-23T17:10:41.239Z,27.33
2023-01-23T17:15:42.090Z,29.50
2023-01-23T17:20:39.885Z,26.35
2023-01-23T17:25:42.855Z,20.65
2023-01-23T17:30:50.865Z,28.27
2023-01-23T17:35:48.942Z,25.20
2023-01-23T17:40:45.667Z,27.07
2023-01-23T17:45:45.603Z,30.58
2023-01-23T17:50:47.120Z,26.48
2023-01-23T17:55:47.905Z,26.33
2023-01-23T18:00:48.696Z,25.50
2023-01-23T18:05:45.102Z,26.08
2023-01-23T18:10:44.945Z,27.77
2023-01-23T18:16:00.319Z,29.50
2023-01-23T18:20:57.955Z,26.52
2023-01-23T18:26:23.569Z,28.02
2023-01-23T18:31:31.382Z,28.17
2023-01-23T18:36:36.265Z,26.20
2023-01-23T18:41:33.129Z,25.95
2023-01-23T18:46:29.783Z,26.10
2023-01-23T18:51:37.845Z,26.38
2023-01-23T18:56:44.595Z,26.17
2023-01-23T19:01:58.750Z,25.50
2023-01-23T19:06:55.429Z,24.08
2023-01-23T19:12:20.428Z,26.58
2023-01-23T19:17:54.042Z,25.58
2023-01-23T19:23:11.973Z,29.58
2023-01-23T19:28:10.191Z,25.87
2023-01-23T19:33:06.522Z,26.70
2023-01-23T19:38:03.017Z,23.65
2023-01-23T19:43:13.729Z,25.83
2023-01-23T19:48:11.387Z,25.30
2023-01-23T19:53:07.836Z,23.92
2023-01-23T19:58:04.632Z,24.58
2023-01-23T20:03:00.932Z,25.95
2023-01-23T20:07:57.226Z,26.55
2023-01-23T20:12:55.182Z,26.42
2023-01-23T20:17:52.893Z,29.27
2023-01-23T20:22:49.226Z,24.98
2023-01-23T20:27:45.967Z,27.52
2023-01-23T20:32:42.628Z,26.08
2023-01-23T20:37:38.976Z,23.90
2023-01-23T20:42:35.402Z,26.67
2023-01-23T20:47:31.691Z,27.85
2023-01-23T20:52:47.302Z,23.52
2023-01-23T20:58:02.278Z,25.42
2023-01-23T21:02:58.693Z,30.88
2023-01-23T21:07:55.052Z,24.20
2023-01-23T21:12:51.429Z,25.80
2023-01-23T21:17:47.737Z,24.95
2023-01-23T21:22:44.090Z,26.55
2023-01-23T21:27:40.402Z,25.88
2023-01-23T21:32:36.809Z,23.83
2023-01-23T21:37:33.242Z,21.95
2023-01-23T21:42:29.946Z,26.23
2023-01-23T21:47:26.285Z,25.50
2023-01-23T21:52:22.589Z,25.90
2023-01-23T21:57:18.905Z,29.80
2023-01-23T22:02:15.186Z,21.70
2023-01-23T22:07:11.482Z,20.83
2023-01-23T22:12:07.807Z,24.02
2023-01-23T22:17:06.257Z,21.58
2023-01-23T22:22:02.604Z,23.60
2023-01-23T22:26:59.330Z,28.80
2023-01-23T22:31:55.761Z,25.15
2023-01-23T22:36:52.188Z,21.17
2023-01-23T22:41:50.276Z,24.40
2023-01-23T22:46:49.401Z,19.07
2023-01-23T22:51:45.820Z,16.42
2023-01-23T22:56:43.980Z,20.17
2023-01-23T23:01:40.337Z,22.80
2023-01-23T23:06:36.629Z,19.92
2023-01-23T23:11:33.117Z,13.85
2023-01-23T23:16:32.232Z,14.88
2023-01-23T23:21:36.080Z,12.45
2023-01-23T23:26:32.849Z,13.68
2023-01-23T23:31:29.469Z,12.52
2023-01-23T23:36:26.044Z,15.23
2023-01-23T23:41:22.672Z,16.73
2023-01-23T23:46:19.330Z,14.15
2023-01-23T23:51:18.726Z,13.55
2023-01-23T23:56:27.228Z,13.20
